Time;durP1;ratioP1;P1;durP2;ratioP2;P2;SDS_P1;SDS_P2;PMS_P1;PMS_P2;Temp;Humidity;BMP_temperature;BMP_pressure;BME280_temperature;BME280_humidity;BME280_pressure;Samples;Min_cycle;Max_cycle;Signal;HPM_P1;HPM_P2
2020/12/13 00:01:39;;;;;;;14.25;7.05;;;9.20;88.90;;;;;;5054874;28;20017;-95
2020/12/13 00:04:05;;;;;;;10.90;6.30;;;9.20;88.90;;;;;;5061988;28;20358;-95
2020/12/13 00:06:46;;;;;;;12.95;6.57;;;9.20;89.00;;;;;;5044361;28;20070;-95
2020/12/13 00:09:12;;;;;;;13.45;6.97;;;9.20;89.00;;;;;;5050450;28;20036;-94
2020/12/13 00:11:39;;;;;;;12.35;5.82;;;9.20;89.00;;;;;;5073626;28;20204;-95
2020/12/13 00:14:05;;;;;;;12.45;6.85;;;9.20;89.00;;;;;;5047721;28;20092;-95
2020/12/13 00:16:30;;;;;;;16.95;8.07;;;9.20;88.90;;;;;;5061009;28;20036;-96
2020/12/13 00:18:57;;;;;;;15.75;7.65;;;9.20;88.90;;;;;;5061429;28;20121;-95
2020/12/13 00:21:32;;;;;;;17.00;9.00;;;9.10;88.90;;;;;;5067761;28;20017;-94
2020/12/13 00:23:57;;;;;;;17.10;8.60;;;9.00;88.80;;;;;;5053796;28;20109;-96
2020/12/13 00:26:24;;;;;;;19.40;9.63;;;9.10;89.00;;;;;;5036337;28;20066;-96
2020/12/13 00:28:50;;;;;;;14.65;6.78;;;9.00;88.90;;;;;;5057825;28;20021;-95
2020/12/13 00:31:17;;;;;;;19.00;8.85;;;9.00;88.90;;;;;;5056204;28;20043;-96
2020/12/13 00:33:44;;;;;;;21.38;9.32;;;9.10;88.90;;;;;;5047292;28;20459;-95
2020/12/13 00:36:19;;;;;;;19.00;9.15;;;9.10;88.80;;;;;;5059705;28;20033;-95
2020/12/13 00:38:45;;;;;;;19.67;8.82;;;9.10;88.80;;;;;;5057716;28;20025;-96
2020/12/13 00:41:11;;;;;;;14.48;7.93;;;9.00;88.70;;;;;;5044980;28;20075;-94
2020/12/13 00:43:36;;;;;;;13.93;7.53;;;9.00;88.80;;;;;;5059541;28;20100;-95
2020/12/13 00:46:02;;;;;;;19.10;8.90;;;8.90;88.70;;;;;;5053284;28;20047;-95
2020/12/13 00:48:27;;;;;;;18.60;9.57;;;8.90;88.80;;;;;;5029813;28;20032;-94
2020/12/13 00:50:53;;;;;;;16.08;8.30;;;8.90;88.80;;;;;;5051985;28;20029;-95
2020/12/13 00:53:18;;;;;;;12.95;7.20;;;8.90;88.80;;;;;;5055077;28;20024;-95
2020/12/13 00:55:46;;;;;;;16.83;8.77;;;9.00;88.80;;;;;;5054983;28;20017;-95
2020/12/13 00:58:12;;;;;;;16.27;8.13;;;8.90;88.80;;;;;;5038551;28;20029;-95
2020/12/13 01:00:38;;;;;;;16.35;8.77;;;9.00;88.90;;;;;;5054733;28;20664;-95
2020/12/13 01:03:03;;;;;;;12.40;7.03;;;9.00;88.80;;;;;;5057067;28;20031;-95
2020/12/13 01:05:29;;;;;;;18.75;8.85;;;9.00;88.70;;;;;;5052460;28;20410;-95
2020/12/13 01:07:55;;;;;;;13.20;6.97;;;9.00;88.70;;;;;;5039342;28;20025;-94
2020/12/13 01:10:21;;;;;;;15.85;8.85;;;9.10;88.60;;;;;;5056059;28;20421;-94
2020/12/13 01:12:48;;;;;;;17.98;9.40;;;9.00;88.60;;;;;;5037273;28;20168;-93
2020/12/13 01:15:16;;;;;;;18.25;8.80;;;9.00;88.60;;;;;;5055309;28;20013;-95
2020/12/13 01:17:47;;;;;;;16.27;8.27;;;9.00;88.60;;;;;;5047091;28;20044;-95
2020/12/13 01:20:14;;;;;;;17.08;9.45;;;9.00;88.60;;;;;;5051458;28;20467;-95
2020/12/13 01:22:40;;;;;;;16.58;8.57;;;9.00;88.60;;;;;;5056899;28;20025;-95
2020/12/13 01:25:07;;;;;;;15.10;8.32;;;9.10;88.60;;;;;;5034818;28;20049;-96
2020/12/13 01:27:32;;;;;;;18.35;9.05;;;9.10;88.50;;;;;;5036906;28;20025;-94
2020/12/13 01:29:58;;;;;;;15.48;8.88;;;9.00;88.40;;;;;;5038876;28;20020;-96
2020/12/13 01:32:24;;;;;;;12.23;6.95;;;9.00;88.40;;;;;;5056802;28;20040;-96
2020/12/13 01:34:51;;;;;;;20.35;9.93;;;9.00;88.40;;;;;;5057339;28;20041;-96
2020/12/13 01:37:17;;;;;;;18.95;9.63;;;9.00;88.40;;;;;;5061324;28;20025;-95
2020/12/13 01:39:43;;;;;;;16.15;8.90;;;9.00;88.50;;;;;;5059490;28;20025;-96
2020/12/13 01:42:08;;;;;;;16.85;8.85;;;9.00;88.60;;;;;;5041059;28;20072;-96
2020/12/13 01:44:37;;;;;;;17.38;9.10;;;9.00;88.60;;;;;;5060027;28;20406;-95
2020/12/13 01:47:05;;;;;;;19.02;9.60;;;9.00;88.70;;;;;;5042406;28;20028;-96
2020/12/13 01:49:36;;;;;;;17.83;9.13;;;9.00;88.70;;;;;;5059680;28;20074;-96
2020/12/13 01:55:04;;;;;;;16.02;8.48;;;9.10;89.00;;;;;;5058286;28;20029;-95
2020/12/13 01:57:35;;;;;;;16.52;8.32;;;9.00;88.70;;;;;;5044669;28;20036;-95
2020/12/13 02:00:05;;;;;;;14.88;8.07;;;9.00;88.70;;;;;;5061768;28;20017;-95
2020/12/13 02:02:35;;;;;;;14.93;8.48;;;9.10;88.70;;;;;;5062567;28;20020;-95
2020/12/13 02:05:04;;;;;;;18.08;9.32;;;9.10;88.50;;;;;;5080939;28;20025;-94
2020/12/13 02:07:30;;;;;;;15.90;8.32;;;9.10;88.60;;;;;;5080675;28;20009;-95
2020/12/13 02:09:57;;;;;;;15.73;7.78;;;9.10;88.60;;;;;;5080787;28;20009;-95
2020/12/13 02:12:23;;;;;;;15.68;8.18;;;9.10;88.50;;;;;;5078751;28;20032;-95
2020/12/13 02:14:48;;;;;;;15.15;8.32;;;9.10;88.50;;;;;;5063912;28;20005;-95
2020/12/13 02:17:15;;;;;;;15.85;8.25;;;9.10;88.50;;;;;;5095236;28;20024;-93
2020/12/13 02:19:40;;;;;;;14.40;8.10;;;9.20;88.50;;;;;;5092967;28;20061;-95
2020/12/13 02:22:11;;;;;;;16.02;8.48;;;9.10;88.30;;;;;;5087413;28;20016;-94
2020/12/13 02:24:37;;;;;;;15.57;7.95;;;9.10;88.40;;;;;;5071909;28;20017;-95
2020/12/13 02:27:07;;;;;;;16.52;8.60;;;9.10;88.30;;;;;;5096287;28;20004;-95
2020/12/13 02:29:33;;;;;;;20.13;10.57;;;9.10;88.30;;;;;;5080230;28;20013;-95
2020/12/13 02:31:59;;;;;;;18.48;10.27;;;9.10;88.30;;;;;;5091995;28;20029;-95
2020/12/13 02:34:25;;;;;;;16.08;8.77;;;9.00;88.20;;;;;;5063717;28;20029;-96
2020/12/13 02:36:50;;;;;;;22.30;10.95;;;9.10;88.30;;;;;;5058223;28;20375;-95
2020/12/13 02:39:16;;;;;;;22.58;10.88;;;9.00;88.10;;;;;;5057789;28;20025;-95
2020/12/13 02:41:41;;;;;;;16.90;8.77;;;9.00;88.20;;;;;;5071938;28;20036;-96
2020/12/13 02:44:07;;;;;;;13.07;6.88;;;9.00;88.10;;;;;;5061015;28;20459;-96
2020/12/13 02:46:33;;;;;;;19.08;7.35;;;8.90;88.10;;;;;;5070237;28;20028;-96
2020/12/13 02:48:58;;;;;;;13.65;6.90;;;8.90;88.20;;;;;;5037623;28;20013;-96
2020/12/13 02:51:24;;;;;;;13.18;6.63;;;9.00;88.30;;;;;;5048353;28;20061;-96
2020/12/13 02:53:50;;;;;;;16.33;8.50;;;9.10;88.30;;;;;;5025729;28;20439;-94
2020/12/13 02:56:16;;;;;;;12.27;5.82;;;9.00;88.20;;;;;;5071633;28;20052;-96
2020/12/13 02:58:41;;;;;;;17.90;8.00;;;9.00;88.10;;;;;;5050092;28;20025;-95
2020/12/13 03:01:08;;;;;;;19.63;7.57;;;9.00;88.10;;;;;;5046236;28;20103;-96
2020/12/13 03:03:33;;;;;;;17.75;7.68;;;9.00;88.20;;;;;;5057700;28;20025;-96
2020/12/13 03:05:59;;;;;;;15.73;7.53;;;9.00;88.30;;;;;;5057958;28;20032;-96
2020/12/13 03:08:25;;;;;;;16.23;7.50;;;9.10;88.30;;;;;;5057014;28;20556;-95
2020/12/13 03:10:51;;;;;;;16.40;6.82;;;9.10;88.20;;;;;;5061202;28;20025;-95
2020/12/13 03:13:17;;;;;;;13.38;6.93;;;9.10;88.20;;;;;;5057820;28;20037;-96
2020/12/13 03:15:43;;;;;;;20.08;6.88;;;9.10;88.20;;;;;;5057526;28;20119;-96
2020/12/13 03:18:08;;;;;;;15.13;7.53;;;9.20;88.20;;;;;;5060219;28;20024;-95
2020/12/13 03:20:34;;;;;;;13.48;7.28;;;9.20;88.10;;;;;;5059717;28;20112;-96
2020/12/13 03:22:59;;;;;;;13.70;6.60;;;9.20;88.10;;;;;;5067166;28;20063;-95
2020/12/13 03:25:25;;;;;;;16.10;6.65;;;9.20;88.10;;;;;;5054197;28;20025;-95
2020/12/13 03:27:50;;;;;;;14.38;6.70;;;9.20;88.00;;;;;;5054610;28;20075;-95
2020/12/13 03:30:16;;;;;;;27.48;9.48;;;9.20;88.10;;;;;;5058670;28;20028;-94
2020/12/13 03:32:43;;;;;;;28.20;11.15;;;9.10;88.00;;;;;;5053451;28;20521;-94
2020/12/13 03:35:09;;;;;;;23.42;8.45;;;9.10;88.00;;;;;;5052306;28;20036;-95
2020/12/13 03:37:34;;;;;;;15.25;7.80;;;9.10;88.00;;;;;;5073336;28;20028;-95
2020/12/13 03:40:00;;;;;;;25.90;9.98;;;9.00;88.00;;;;;;5067442;28;20036;-95
2020/12/13 03:42:26;;;;;;;24.45;9.75;;;9.10;88.00;;;;;;5055470;28;20033;-92
2020/12/13 03:44:51;;;;;;;23.38;9.77;;;9.00;88.00;;;;;;5036427;28;20051;-95
2020/12/13 03:47:17;;;;;;;16.00;8.18;;;8.90;88.00;;;;;;5073579;28;20013;-94
2020/12/13 03:49:42;;;;;;;16.00;7.10;;;8.90;88.10;;;;;;5068101;28;20060;-95
2020/12/13 03:52:08;;;;;;;18.88;7.88;;;8.90;88.80;;;;;;5041775;28;20193;-94
2020/12/13 03:54:33;;;;;;;16.23;7.15;;;8.90;88.10;;;;;;5054365;28;20075;-95
2020/12/13 03:56:59;;;;;;;19.05;7.70;;;9.00;88.10;;;;;;5062111;28;20030;-95
2020/12/13 03:59:26;;;;;;;25.00;9.50;;;9.00;88.10;;;;;;5058711;28;20066;-95
2020/12/13 04:01:51;;;;;;;24.20;8.45;;;9.00;88.10;;;;;;5066915;28;20028;-95
2020/12/13 04:04:17;;;;;;;19.30;8.60;;;9.00;88.10;;;;;;5070904;28;20494;-96
2020/12/13 04:06:42;;;;;;;13.40;6.63;;;9.00;88.10;;;;;;5062595;28;20477;-96
2020/12/13 04:09:08;;;;;;;15.82;7.35;;;9.00;88.10;;;;;;5062933;28;20063;-95
2020/12/13 04:11:34;;;;;;;18.08;7.72;;;9.00;88.20;;;;;;5066472;28;20034;-95
2020/12/13 04:13:59;;;;;;;15.85;7.15;;;9.00;88.10;;;;;;5075772;28;20020;-95
2020/12/13 04:16:29;;;;;;;13.93;6.60;;;9.00;88.10;;;;;;5055337;28;20033;-95
2020/12/13 04:18:54;;;;;;;18.30;7.25;;;9.00;88.10;;;;;;5067644;28;20051;-96
2020/12/13 04:21:20;;;;;;;17.88;6.90;;;9.00;88.10;;;;;;5065600;28;20499;-96
2020/12/13 04:23:45;;;;;;;16.90;7.30;;;9.00;88.10;;;;;;5062645;28;20018;-96
2020/12/13 04:26:11;;;;;;;23.42;8.18;;;9.00;88.20;;;;;;5073589;28;20025;-96
2020/12/13 04:28:36;;;;;;;21.77;7.72;;;9.10;88.20;;;;;;5096140;28;20008;-96
2020/12/13 04:31:03;;;;;;;17.58;7.97;;;9.10;88.20;;;;;;5077522;28;20029;-95
2020/12/13 04:33:29;;;;;;;30.33;8.40;;;9.10;88.20;;;;;;5069521;28;20029;-95
2020/12/13 04:35:54;;;;;;;25.92;9.10;;;9.10;88.20;;;;;;5076066;28;20035;-94
2020/12/13 04:38:20;;;;;;;16.67;7.38;;;9.10;88.20;;;;;;5074010;28;20028;-94
2020/12/13 04:40:45;;;;;;;20.15;8.15;;;9.00;88.20;;;;;;5084040;28;20005;-94
2020/12/13 04:43:11;;;;;;;22.90;7.47;;;9.00;88.20;;;;;;5069046;28;20021;-96
2020/12/13 04:45:37;;;;;;;15.93;8.02;;;9.00;88.30;;;;;;5057365;28;20037;-95
2020/12/13 04:48:06;;;;;;;21.92;7.22;;;9.00;88.30;;;;;;5052692;28;20497;-95
2020/12/13 04:50:43;;;;;;;17.25;7.05;;;9.10;88.40;;;;;;5052501;28;20112;-96
2020/12/13 04:53:09;;;;;;;23.50;7.07;;;9.00;88.30;;;;;;5035829;28;20040;-96
2020/12/13 04:55:59;;;;;;;39.25;8.68;;;9.00;88.30;;;;;;5053084;28;20045;-95
2020/12/13 04:58:28;;;;;;;22.27;6.80;;;9.10;88.40;;;;;;5068260;28;20032;-95
2020/12/13 05:00:59;;;;;;;16.75;8.13;;;9.10;88.30;;;;;;5063904;28;20028;-95
2020/12/13 05:03:26;;;;;;;10.88;5.63;;;9.10;88.30;;;;;;5054007;28;20032;-95
2020/12/13 05:05:52;;;;;;;13.77;6.57;;;9.10;88.40;;;;;;5053404;28;20036;-95
2020/12/13 05:08:18;;;;;;;16.73;6.88;;;9.10;88.50;;;;;;5054243;28;20025;-95
2020/12/13 05:10:44;;;;;;;18.88;7.80;;;9.10;88.50;;;;;;5053316;28;20509;-96
2020/12/13 05:13:10;;;;;;;37.70;9.45;;;9.10;88.40;;;;;;5053771;28;20096;-94
2020/12/13 05:15:37;;;;;;;13.68;5.85;;;9.10;88.50;;;;;;5055970;28;20519;-96
2020/12/13 05:18:04;;;;;;;24.48;9.57;;;9.20;88.60;;;;;;5063097;28;20036;-95
2020/12/13 05:20:30;;;;;;;24.67;9.00;;;9.10;88.60;;;;;;5075856;28;20032;-95
2020/12/13 05:22:57;;;;;;;23.30;8.75;;;9.10;88.60;;;;;;5070644;28;20013;-96
2020/12/13 05:25:41;;;;;;;17.60;8.68;;;9.10;88.60;;;;;;5044802;28;20390;-96
2020/12/13 05:28:10;;;;;;;11.55;6.43;;;9.10;88.60;;;;;;5059634;28;20101;-95
2020/12/13 05:30:47;;;;;;;14.50;8.13;;;9.10;88.50;;;;;;5074722;28;20021;-95
2020/12/13 05:33:21;;;;;;;11.27;6.30;;;9.30;88.70;;;;;;5065651;28;20013;-94
2020/12/13 05:35:47;;;;;;;11.15;6.57;;;9.20;88.60;;;;;;5059109;28;20063;-96
2020/12/13 05:38:15;;;;;;;11.27;6.82;;;9.20;88.60;;;;;;5038518;28;20060;-96
2020/12/13 05:40:41;;;;;;;8.98;5.28;;;9.20;88.70;;;;;;5072342;28;20097;-95
2020/12/13 05:43:17;;;;;;;11.88;7.68;;;9.20;88.80;;;;;;5069397;28;20017;-95
2020/12/13 05:46:20;;;;;;;12.43;7.30;;;9.10;88.80;;;;;;5056658;28;20063;-95
2020/12/13 05:48:47;;;;;;;11.25;6.70;;;9.10;89.50;;;;;;5050353;28;20025;-94
2020/12/13 05:51:22;;;;;;;7.68;4.85;;;9.20;89.00;;;;;;5070783;28;20036;-95
2020/12/13 05:53:53;;;;;;;11.10;6.85;;;9.20;89.00;;;;;;5067447;28;20060;-96
2020/12/13 05:56:21;;;;;;;11.23;7.05;;;9.20;89.00;;;;;;5056448;28;20048;-96
2020/12/13 05:58:47;;;;;;;17.60;9.70;;;9.30;89.00;;;;;;5065453;28;20016;-96
2020/12/13 06:01:19;;;;;;;13.30;8.07;;;9.30;88.90;;;;;;5068229;28;20112;-96
2020/12/13 06:03:50;;;;;;;9.18;5.22;;;9.30;88.90;;;;;;5062903;28;20028;-96
2020/12/13 06:06:21;;;;;;;15.82;8.93;;;9.30;88.80;;;;;;5055840;28;20025;-96
2020/12/13 06:09:03;;;;;;;13.15;8.00;;;9.30;88.90;;;;;;5046033;28;20078;-96
2020/12/13 06:11:44;;;;;;;13.80;7.75;;;9.30;88.90;;;;;;5055903;28;20068;-96
2020/12/13 06:14:11;;;;;;;9.23;5.28;;;9.30;88.80;;;;;;5047573;28;20028;-96
2020/12/13 06:16:37;;;;;;;12.45;7.45;;;9.30;88.90;;;;;;5060247;28;20055;-96
2020/12/13 06:19:05;;;;;;;12.73;7.22;;;9.30;88.90;;;;;;5053383;28;20017;-96
2020/12/13 06:21:31;;;;;;;8.52;5.30;;;9.30;88.90;;;;;;5057308;28;20505;-96
2020/12/13 06:23:58;;;;;;;8.95;5.40;;;9.30;88.90;;;;;;5064044;28;20025;-95
2020/12/13 06:26:24;;;;;;;11.32;7.45;;;9.30;88.90;;;;;;5070011;28;20107;-96
2020/12/13 06:28:52;;;;;;;12.98;7.30;;;9.30;88.90;;;;;;5059074;28;20074;-96
2020/12/13 06:31:18;;;;;;;8.45;4.95;;;9.40;89.00;;;;;;5070076;28;20020;-95
2020/12/13 06:33:44;;;;;;;19.20;10.88;;;9.40;89.00;;;;;;5057856;28;20021;-95
2020/12/13 06:36:10;;;;;;;13.75;8.23;;;9.40;88.90;;;;;;5072420;28;20024;-95
2020/12/13 06:38:39;;;;;;;13.05;7.47;;;9.40;89.00;;;;;;5058945;28;20063;-95
2020/12/13 06:41:12;;;;;;;15.35;9.00;;;9.40;89.00;;;;;;5056962;28;20048;-95
2020/12/13 06:44:03;;;;;;;15.45;8.68;;;9.40;88.90;;;;;;5058017;28;20033;-94
2020/12/13 06:46:30;;;;;;;14.90;8.88;;;9.40;88.90;;;;;;5055654;28;20033;-94
2020/12/13 06:48:56;;;;;;;21.15;10.90;;;9.40;88.80;;;;;;5036007;28;20032;-96
2020/12/13 06:51:34;;;;;;;15.93;8.75;;;9.40;88.90;;;;;;5031963;28;20105;-95
2020/12/13 06:54:01;;;;;;;9.80;6.07;;;9.50;89.00;;;;;;5059783;28;20088;-95
2020/12/13 06:56:27;;;;;;;12.90;7.78;;;9.40;88.90;;;;;;5043803;28;20137;-95
2020/12/13 06:59:01;;;;;;;10.98;6.80;;;9.40;88.90;;;;;;5055379;28;20036;-96
2020/12/13 07:01:36;;;;;;;10.90;6.57;;;9.50;88.90;;;;;;5037491;28;20021;-96
2020/12/13 07:04:21;;;;;;;13.98;8.13;;;9.40;88.90;;;;;;5060205;28;20029;-95
2020/12/13 07:07:01;;;;;;;13.80;8.70;;;9.40;88.90;;;;;;5039967;28;20021;-96
2020/12/13 07:09:28;;;;;;;14.50;8.90;;;9.40;88.90;;;;;;5056021;28;20031;-95
2020/12/13 07:11:55;;;;;;;10.77;6.45;;;9.40;89.00;;;;;;5058607;28;20123;-95
2020/12/13 07:14:26;;;;;;;9.57;5.82;;;9.40;89.00;;;;;;5068255;28;20036;-94
2020/12/13 07:17:16;;;;;;;10.95;6.43;;;9.40;89.00;;;;;;5054833;28;20120;-95
2020/12/13 07:19:42;;;;;;;17.10;8.95;;;9.40;89.60;;;;;;5060395;28;20075;-94
2020/12/13 07:22:10;;;;;;;9.23;5.43;;;9.40;89.10;;;;;;5058592;28;20028;-95
2020/12/13 07:24:37;;;;;;;12.23;6.75;;;9.40;89.10;;;;;;5068774;28;20070;-94
2020/12/13 07:27:04;;;;;;;13.35;8.10;;;9.40;89.10;;;;;;5052779;28;20032;-94
2020/12/13 07:29:34;;;;;;;12.60;7.15;;;9.40;89.10;;;;;;5061628;28;20024;-94
2020/12/13 07:32:04;;;;;;;13.65;8.50;;;9.40;89.10;;;;;;5072554;28;20048;-95
2020/12/13 07:34:31;;;;;;;14.38;7.93;;;9.40;89.10;;;;;;5066672;28;20032;-94
2020/12/13 07:36:59;;;;;;;15.65;9.02;;;9.40;89.10;;;;;;5053775;28;20056;-94
2020/12/13 07:39:25;;;;;;;16.58;7.35;;;9.40;89.20;;;;;;5057696;28;20032;-95
2020/12/13 07:41:51;;;;;;;14.75;9.13;;;9.40;89.10;;;;;;5059387;28;20094;-96
2020/12/13 07:44:18;;;;;;;13.95;7.10;;;9.40;89.10;;;;;;5067777;28;20033;-94
2020/12/13 07:46:44;;;;;;;11.85;5.90;;;9.40;89.10;;;;;;5035860;28;20474;-94
2020/12/13 07:49:10;;;;;;;13.55;7.55;;;9.50;89.20;;;;;;5043385;28;20028;-95
2020/12/13 07:51:38;;;;;;;14.57;8.05;;;9.40;89.10;;;;;;5054424;28;20094;-94
2020/12/13 07:54:18;;;;;;;12.90;7.45;;;9.40;89.10;;;;;;5034147;28;20025;-94
2020/12/13 07:56:45;;;;;;;10.27;6.63;;;9.50;89.20;;;;;;5056525;28;20029;-95
2020/12/13 07:59:16;;;;;;;12.95;7.90;;;9.40;89.10;;;;;;5051962;28;20017;-95
2020/12/13 08:01:43;;;;;;;9.55;5.60;;;9.50;89.10;;;;;;5038404;28;20089;-95
2020/12/13 08:04:12;;;;;;;13.43;7.85;;;9.50;89.10;;;;;;5053181;28;20521;-95
2020/12/13 08:06:38;;;;;;;10.82;6.43;;;9.50;89.70;;;;;;5051593;28;20025;-95
2020/12/13 08:09:13;;;;;;;12.70;6.47;;;9.50;89.10;;;;;;5068210;28;20029;-95
2020/12/13 08:11:44;;;;;;;6.65;4.72;;;9.60;89.20;;;;;;5071248;28;20474;-96
2020/12/13 08:14:09;;;;;;;11.13;7.25;;;9.60;89.00;;;;;;5068170;28;20168;-96
2020/12/13 08:16:35;;;;;;;13.98;8.40;;;9.60;89.00;;;;;;5044135;28;20064;-96
2020/12/13 08:19:12;;;;;;;11.93;7.45;;;9.60;89.00;;;;;;5072651;28;20028;-95
2020/12/13 08:21:57;;;;;;;15.35;9.07;;;9.60;88.90;;;;;;5064212;28;20033;-96
2020/12/13 08:24:26;;;;;;;11.13;7.18;;;9.60;89.00;;;;;;5048884;28;20039;-96
2020/12/13 08:26:53;;;;;;;18.60;12.02;;;9.50;88.90;;;;;;5073603;28;20028;-95
2020/12/13 08:29:21;;;;;;;8.88;6.28;;;9.50;88.90;;;;;;5052002;28;20043;-95
2020/12/13 08:31:49;;;;;;;11.82;8.32;;;9.50;89.00;;;;;;5041313;28;20037;-96
2020/12/13 08:34:21;;;;;;;14.35;9.35;;;9.50;89.00;;;;;;5056849;28;20021;-94
2020/12/13 08:36:59;;;;;;;12.73;8.95;;;9.50;89.00;;;;;;5056084;28;20105;-95
2020/12/13 08:39:37;;;;;;;13.23;8.68;;;9.50;89.10;;;;;;5062749;28;20013;-96
2020/12/13 08:42:06;;;;;;;11.27;6.75;;;9.50;89.10;;;;;;5082520;28;20040;-96
2020/12/13 08:44:40;;;;;;;15.60;9.90;;;9.50;89.10;;;;;;5052635;28;20051;-96
2020/12/13 08:47:08;;;;;;;10.73;7.47;;;9.60;89.70;;;;;;5073526;28;20036;-95
2020/12/13 08:49:39;;;;;;;13.27;8.90;;;9.60;89.00;;;;;;5080296;28;20009;-95
2020/12/13 08:52:21;;;;;;;12.23;7.70;;;9.50;89.00;;;;;;5083441;28;20045;-93
2020/12/13 08:54:51;;;;;;;;;;;9.50;89.00;;;;;;5075213;28;20505;-95
2020/12/13 08:57:26;;;;;;;9.60;6.80;;;9.50;88.90;;;;;;5055081;28;19911;-96
2020/12/13 09:00:20;;;;;;;10.77;7.45;;;9.50;89.00;;;;;;5056978;28;20029;-93
2020/12/13 09:03:00;;;;;;;8.48;6.03;;;9.50;89.00;;;;;;5067584;28;20043;-95
2020/12/13 09:05:30;;;;;;;9.32;6.82;;;9.50;89.00;;;;;;5072183;28;20004;-96
2020/12/13 09:10:39;;;;;;;13.73;8.98;;;9.50;89.00;;;;;;5096607;22;20059;-96
2020/12/13 09:13:05;;;;;;;;;;;9.50;89.00;;;;;;5074375;28;20048;-95
2020/12/13 09:15:31;;;;;;;8.70;5.60;;;9.50;88.90;;;;;;5073622;28;19924;-96
2020/12/13 09:18:01;;;;;;;9.80;6.43;;;9.40;89.00;;;;;;5093063;28;20021;-95
2020/12/13 09:20:29;;;;;;;10.93;6.88;;;9.40;89.00;;;;;;5077768;28;20021;-96
2020/12/13 09:23:05;;;;;;;10.00;6.05;;;9.50;89.10;;;;;;5065734;28;20008;-96
2020/12/13 09:26:23;;;;;;;13.70;7.78;;;9.40;89.10;;;;;;5081931;28;20017;-96
2020/12/13 09:28:53;;;;;;;10.25;6.57;;;9.40;89.10;;;;;;5038867;28;20033;-93
2020/12/13 09:31:19;;;;;;;11.63;8.20;;;9.50;89.10;;;;;;5081534;28;20040;-94
2020/12/13 09:33:45;;;;;;;7.18;4.88;;;9.40;89.00;;;;;;5058632;28;20021;-95
2020/12/13 09:36:17;;;;;;;10.13;6.65;;;9.40;89.00;;;;;;5072568;28;20013;-93
2020/12/13 09:38:42;;;;;;;10.15;6.20;;;9.50;89.10;;;;;;5059747;28;20009;-94
2020/12/13 09:41:08;;;;;;;10.35;7.35;;;9.60;89.20;;;;;;5074608;28;20097;-95
2020/12/13 09:43:43;;;;;;;7.32;4.88;;;9.40;89.00;;;;;;5033629;28;20076;-96
2020/12/13 09:46:09;;;;;;;8.80;6.07;;;9.40;89.00;;;;;;5057525;28;20108;-96
2020/12/13 09:48:35;;;;;;;11.80;7.50;;;9.50;89.00;;;;;;5072635;28;20041;-95
2020/12/13 09:51:01;;;;;;;10.77;7.75;;;9.50;89.50;;;;;;5078606;28;20080;-94
2020/12/13 09:53:26;;;;;;;13.25;8.43;;;9.50;88.90;;;;;;5052091;28;20085;-95
2020/12/13 09:55:52;;;;;;;11.10;7.15;;;9.50;88.80;;;;;;5071976;28;20032;-95
2020/12/13 09:58:17;;;;;;;12.40;8.38;;;9.50;88.80;;;;;;5047199;28;20016;-95
2020/12/13 10:00:44;;;;;;;7.90;5.43;;;9.50;88.80;;;;;;5058827;28;20066;-96
2020/12/13 10:03:10;;;;;;;11.68;7.07;;;9.50;88.80;;;;;;5052425;28;20033;-95
2020/12/13 10:05:57;;;;;;;10.60;6.75;;;9.40;88.70;;;;;;5038726;28;20021;-94
2020/12/13 10:11:05;;;;;;;14.25;8.63;;;9.60;88.70;;;;;;5056076;28;20047;-94
2020/12/13 10:13:30;;;;;;;18.75;10.73;;;9.40;88.70;;;;;;5051868;28;20096;-94
2020/12/13 10:15:56;;;;;;;20.80;12.05;;;9.40;88.70;;;;;;5019746;28;20506;-95
2020/12/13 10:18:22;;;;;;;13.25;8.20;;;9.40;89.30;;;;;;5055250;28;20082;-94
2020/12/13 10:20:47;;;;;;;20.10;12.18;;;9.40;88.70;;;;;;5037522;28;20025;-94
2020/12/13 10:23:13;;;;;;;19.27;12.45;;;9.40;88.70;;;;;;5047455;28;20037;-96
2020/12/13 10:25:46;;;;;;;12.73;8.93;;;9.40;88.70;;;;;;5051273;28;20030;-93
2020/12/13 10:28:11;;;;;;;16.10;10.57;;;9.40;88.80;;;;;;5029758;28;20032;-95
2020/12/13 10:30:37;;;;;;;18.23;11.77;;;9.40;88.70;;;;;;5036411;28;20026;-95
2020/12/13 10:33:03;;;;;;;19.15;12.57;;;9.40;89.40;;;;;;5054278;28;20390;-95
2020/12/13 10:35:28;;;;;;;19.00;12.32;;;9.40;88.70;;;;;;5033374;28;20029;-96
2020/12/13 10:37:54;;;;;;;14.93;9.80;;;9.40;88.60;;;;;;5055100;28;20041;-95
2020/12/13 10:40:21;;;;;;;16.40;11.35;;;9.40;88.60;;;;;;5033882;28;20471;-94
2020/12/13 10:42:46;;;;;;;16.70;10.10;;;9.40;89.30;;;;;;5036538;28;20014;-95
2020/12/13 10:45:12;;;;;;;16.70;11.02;;;9.40;88.60;;;;;;5053636;28;20105;-95
2020/12/13 10:47:37;;;;;;;14.82;11.00;;;9.50;88.50;;;;;;5035350;28;20032;-94
2020/12/13 10:50:03;;;;;;;20.17;13.10;;;9.50;88.40;;;;;;5052316;28;20021;-95
2020/12/13 10:52:34;;;;;;;17.83;11.20;;;9.50;88.40;;;;;;5034018;28;20044;-95
2020/12/13 10:55:00;;;;;;;16.13;10.30;;;9.60;88.40;;;;;;5039225;28;20063;-94
2020/12/13 10:57:25;;;;;;;16.52;9.43;;;9.60;89.00;;;;;;5054391;28;20502;-94
2020/12/13 10:59:51;;;;;;;18.27;12.27;;;9.60;88.20;;;;;;5051738;28;20025;-93
2020/12/13 11:02:18;;;;;;;17.02;11.32;;;9.60;88.10;;;;;;5034191;28;20024;-95
2020/12/13 11:04:45;;;;;;;18.92;12.52;;;9.70;88.00;;;;;;5055418;28;20032;-91
2020/12/13 11:07:10;;;;;;;19.38;13.60;;;9.70;87.80;;;;;;5055940;28;20036;-95
2020/12/13 11:09:36;;;;;;;16.20;10.30;;;9.60;87.70;;;;;;5037637;28;20033;-93
2020/12/13 11:12:07;;;;;;;17.15;12.23;;;9.70;87.70;;;;;;5055060;28;20056;-96
2020/12/13 11:14:36;;;;;;;18.10;11.65;;;9.70;87.60;;;;;;5063340;28;20027;-96
2020/12/13 11:17:04;;;;;;;21.02;13.95;;;9.70;87.50;;;;;;5074096;28;20089;-96
2020/12/13 11:19:29;;;;;;;15.32;10.20;;;9.70;87.40;;;;;;5062440;28;20036;-96
2020/12/13 11:21:58;;;;;;;18.25;11.27;;;9.70;87.30;;;;;;5046431;28;20017;-96
2020/12/13 11:24:25;;;;;;;12.60;9.00;;;9.70;87.20;;;;;;5062708;28;20024;-95
2020/12/13 11:26:53;;;;;;;13.73;9.23;;;9.70;87.20;;;;;;5049900;28;20021;-94
2020/12/13 11:29:29;;;;;;;15.77;9.77;;;9.70;87.10;;;;;;5181089;22;20045;-95
2020/12/13 11:31:57;;;;;;;10.23;7.15;;;9.80;87.10;;;;;;5031454;28;20356;-96
2020/12/13 11:34:23;;;;;;;14.93;10.18;;;9.80;87.00;;;;;;5041473;28;20022;-96
2020/12/13 11:36:51;;;;;;;21.23;13.05;;;9.80;86.80;;;;;;5038854;28;20037;-95
2020/12/13 11:39:20;;;;;;;15.35;9.30;;;9.80;86.70;;;;;;5024016;28;20107;-96
2020/12/13 11:41:45;;;;;;;17.70;11.38;;;9.80;86.70;;;;;;5017918;28;20471;-96
2020/12/13 11:44:11;;;;;;;11.32;8.48;;;9.90;86.50;;;;;;5031994;28;20028;-92
2020/12/13 11:46:37;;;;;;;16.73;9.35;;;9.90;86.50;;;;;;5040726;28;20059;-94
2020/12/13 11:49:03;;;;;;;15.20;9.88;;;9.90;86.40;;;;;;5034582;28;20029;-93
2020/12/13 11:51:28;;;;;;;14.15;7.72;;;9.90;86.30;;;;;;5012969;28;20036;-93
2020/12/13 11:53:54;;;;;;;13.63;8.23;;;9.80;86.10;;;;;;5020839;28;20635;-93
2020/12/13 11:56:22;;;;;;;11.48;8.10;;;9.90;86.10;;;;;;5007540;28;20029;-93
2020/12/13 11:58:48;;;;;;;10.38;5.82;;;9.80;85.80;;;;;;5013332;28;20065;-94
2020/12/13 12:01:19;;;;;;;9.40;5.82;;;9.80;85.90;;;;;;5015913;28;20103;-95
2020/12/13 12:03:47;;;;;;;8.35;5.93;;;9.80;85.90;;;;;;5016060;28;20526;-96
2020/12/13 12:06:14;;;;;;;8.25;5.05;;;9.90;85.90;;;;;;5024484;28;20084;-95
2020/12/13 12:11:30;;;;;;;10.60;5.90;;;10.00;85.80;;;;;;5229015;22;20517;-92
2020/12/13 12:13:56;;;;;;;8.57;4.78;;;10.00;85.70;;;;;;5035602;28;20063;-93
2020/12/13 12:16:29;;;;;;;8.40;4.78;;;10.00;85.60;;;;;;5033098;28;20117;-95
2020/12/13 12:18:56;;;;;;;6.35;3.90;;;10.10;85.60;;;;;;5012378;28;20092;-94
2020/12/13 12:21:27;;;;;;;9.85;6.38;;;10.00;85.40;;;;;;5014083;28;20032;-95
2020/12/13 12:23:53;;;;;;;8.23;4.47;;;10.00;85.30;;;;;;5017122;28;20037;-94
2020/12/13 12:26:19;;;;;;;8.48;4.93;;;9.90;85.10;;;;;;5018009;28;20114;-94
2020/12/13 12:28:49;;;;;;;8.40;4.15;;;10.00;85.00;;;;;;5039017;28;20029;-94
2020/12/13 12:31:21;;;;;;;7.97;4.88;;;9.80;84.80;;;;;;5013750;28;20033;-95
2020/12/13 12:33:47;;;;;;;7.88;4.47;;;9.90;84.50;;;;;;5042641;28;20017;-96
2020/12/13 12:36:14;;;;;;;6.72;3.58;;;10.00;84.40;;;;;;5037468;28;20087;-95
2020/12/13 12:38:40;;;;;;;6.90;4.20;;;10.30;84.50;;;;;;5035985;28;20016;-95
2020/12/13 12:41:05;;;;;;;7.57;4.72;;;10.70;83.40;;;;;;5011408;28;20066;-96
2020/12/13 12:43:34;;;;;;;7.93;3.97;;;10.70;82.10;;;;;;5013831;28;20013;-94
2020/12/13 12:46:03;;;;;;;6.20;3.58;;;10.70;81.80;;;;;;5017765;28;20072;-96
2020/12/13 12:48:29;;;;;;;5.60;3.10;;;10.70;81.80;;;;;;5017106;28;20017;-95
2020/12/13 12:50:56;;;;;;;3.88;2.50;;;10.90;81.90;;;;;;5012346;28;20030;-95
2020/12/13 12:53:26;;;;;;;6.38;3.10;;;10.90;81.90;;;;;;5026173;28;20033;-94
2020/12/13 12:56:27;;;;;;;;;;;;;;;;;;;;;
2020/12/13 13:17:11;;;;;;;4.28;2.55;;;10.60;82.40;;;;;;5074513;22;20045;-94
2020/12/13 13:19:39;;;;;;;8.40;3.63;;;10.50;82.60;;;;;;5054983;28;20024;-95
2020/12/13 13:42:45;;;;;;;5.85;3.22;;;9.70;81.30;;;;;;5043332;28;20061;-96
2020/12/13 13:45:18;;;;;;;4.55;2.50;;;9.70;81.30;;;;;;5012010;28;20590;-96